Flight Track Log - Related Links

Times and Time Zones

All times are in EDT time to prevent confusion due to time zone crossing. See the EJA646 flight status page for this flight to view local times or setup timezone preferences in your user account.


Time Position Orientation Groundspeed Altitude Reporting Facility
EDT Latitude Longitude Course Direction KTS MPH feet Rate Location/Type
Thu 10:34:13 PM 32.8833 -96.8833 162° South 171 197 2,900  Level Dallas / Fort Worth TRACON
Thu 10:35:14 PM 32.9167 -96.8833 360° North 212 244 5,500 2,826 Climbing Dallas / Fort Worth TRACON
Thu 10:36:14 PM 32.8833 -96.8167 121° Southeast 274 315 8,600 3,150 Climbing Dallas / Fort Worth TRACON
Thu 10:37:14 PM 32.8167 -96.7833 157° South 295 339 11,800 2,911 Climbing Dallas / Fort Worth TRACON
Thu 10:39:00 PM 32.6207 -96.1839 162° South  Level Estimated
Thu 10:39:03 PM 32.6858 -96.7964 185° South 288 331 16,800  Level Fort Worth Center
Thu 10:40:03 PM 32.6022 -96.8019 183° South 288 331 19,000 2,050 Climbing Fort Worth Center
Thu 10:41:03 PM 32.5292 -96.8047 182° South 293 337 20,900 2,050 Climbing Fort Worth Center
Thu 10:42:03 PM 32.4417 -96.8078 182° South 293 337 23,100 2,100 Climbing Fort Worth Center
Thu 10:43:03 PM 32.3622 -96.8133 183° South 287 330 25,100 1,850 Climbing Fort Worth Center
Thu 10:44:03 PM 32.2808 -96.8161 182° South 287 330 26,800 1,600 Climbing Fort Worth Center
Thu 10:45:03 PM 32.1972 -96.7825 161° South 302 348 28,300 1,450 Climbing Fort Worth Center
Thu 10:46:03 PM 32.1114 -96.7486 162° South 317 365 29,700 1,250 Climbing Fort Worth Center
Thu 10:47:03 PM 32.0256 -96.7175 163° South 325 374 30,800 1,050 Climbing Fort Worth Center
Thu 10:48:03 PM 31.9378 -96.6839 162° South 333 383 31,800 1,000 Climbing Fort Worth Center
Thu 10:49:03 PM 31.8456 -96.6456 161° South 333 383 32,800 1,000 Climbing Fort Worth Center
Thu 10:50:03 PM 31.7536 -96.6094 162° South 343 395 33,800 900 Climbing Fort Worth Center
Thu 10:51:03 PM 31.6719 -96.5786 162° South 348 400 34,600 908 Climbing Fort Worth Center
Thu 10:52:02 PM 31.5803 -96.5392 160° South 350 403 35,600 950 Climbing Houston Center
Thu 10:53:03 PM 31.4875 -96.5025 161° South 347 399 36,500 934 Climbing Houston Center
Thu 10:54:04 PM 31.3961 -96.4683 162° South 342 394 37,500 878 Climbing Houston Center
Thu 10:55:06 PM 31.3064 -96.4342 162° South 336 387 38,300 732 Climbing Houston Center
Thu 10:56:07 PM 31.2175 -96.4006 162° South 333 383 39,000 639 Climbing Houston Center
Thu 10:57:08 PM 31.1253 -96.3667 163° South 340 391 39,600 541 Climbing Houston Center
Thu 10:58:09 PM 31.0325 -96.3311 162° South 346 398 40,100 492 Climbing Houston Center
Thu 10:59:10 PM 30.9381 -96.2964 162° South 349 402 40,600 439 Climbing Houston Center
Thu 11:00:12 PM 30.8428 -96.2608 162° South 354 407 41,000 195 Climbing Houston Center
Thu 11:01:13 PM 30.7486 -96.2044 153° Southeast 386 444 41,000  Level Houston Center
Thu 11:02:14 PM 30.6925 -96.0472 113° Southeast 473 544 41,000  Level Houston Center
Thu 11:03:15 PM 30.6653 -95.9144 103° East 483 556 41,000  Level Houston Center
Thu 11:04:16 PM 30.6389 -95.7617 101° East 484 557 41,000  Level Houston Center
Thu 11:05:17 PM 30.6111 -95.6056 102° East 490 564 41,000  Level Houston Center
Thu 11:06:19 PM 30.5783 -95.4253 102° East 487 560 41,000  Level Houston Center
Thu 11:07:20 PM 30.5506 -95.2711 102° East 490 564 41,000  Level Houston Center
Thu 11:08:21 PM 30.5219 -95.1169 102° East 492 566 41,000  Level Houston Center
Thu 11:09:22 PM 30.4947 -94.9628 102° East 492 566 41,000  Level Houston Center
Thu 11:10:23 PM 30.4672 -94.8061 101° East 497 572 41,000  Level Houston Center
Thu 11:11:25 PM 30.4375 -94.6447 102° East 486 559 41,000  Level Houston Center
Thu 11:12:26 PM 30.4081 -94.4878 102° East 495 570 41,000  Level Houston Center
Thu 11:13:27 PM 30.3758 -94.3156 102° East 493 567 41,000  Level Houston Center
Thu 11:14:28 PM 30.3464 -94.1622 103° East 490 564 41,000  Level Houston Center
Thu 11:15:29 PM 30.3172 -94.0067 102° East 495 570 41,000  Level Houston Center
Thu 11:16:30 PM 30.2883 -93.8533 102° East 493 567 41,000  Level Houston Center
Thu 11:17:32 PM 30.2586 -93.6981 102° East 496 571 41,000  Level Houston Center
Thu 11:18:33 PM 30.2300 -93.5439 102° East 492 566 41,000  Level Houston Center
Thu 11:19:34 PM 30.1950 -93.3883 105° East 499 574 41,000  Level Houston Center
Thu 11:20:35 PM 30.1644 -93.2339 103° East 498 573 41,000  Level Houston Center
Thu 11:21:36 PM 30.1478 -93.0797 97° East 496 571 41,000  Level Houston Center
Thu 11:22:37 PM 30.1753 -92.9231 78° East 501 577 41,000  Level Houston Center
Thu 11:23:38 PM 30.2119 -92.7358 77° East 501 577 41,000  Level Houston Center
Thu 11:24:39 PM 30.2425 -92.5828 77° East 496 571 41,000  Level Houston Center
Thu 11:25:40 PM 30.2731 -92.4261 77° East 502 578 41,000  Level Houston Center
Thu 11:26:41 PM 30.3025 -92.2711 78° East 499 574 41,000  Level Houston Center
Thu 11:27:42 PM 30.3319 -92.1161 78° East 497 572 41,000  Level Houston Center
Thu 11:28:43 PM 30.3611 -91.9600 78° East 499 574 41,000  Level Houston Center
Thu 11:29:44 PM 30.3906 -91.8042 78° East 500 575 41,000  Level Houston Center
Thu 11:30:45 PM 30.4236 -91.6286 78° East 501 577 41,000  Level Houston Center
Thu 11:31:47 PM 30.4531 -91.4725 78° East 499 574 41,000  Level Houston Center
Thu 11:32:48 PM 30.4806 -91.3144 79° East 500 575 41,000  Level Houston Center
Thu 11:33:49 PM 30.4992 -91.1569 82° East 496 571 41,000  Level Houston Center
Thu 11:34:50 PM 30.5136 -90.9994 84° East 494 568 41,000  Level Houston Center
Thu 11:35:51 PM 30.5278 -90.8400 84° East 496 571 41,000  Level Houston Center
Thu 11:36:52 PM 30.5411 -90.6825 84° East 494 568 41,000  Level Houston Center
Thu 11:37:53 PM 30.5547 -90.5242 84° East 493 567 41,000  Level Houston Center
Thu 11:38:54 PM 30.5697 -90.3664 84° East 493 567 41,000  Level Houston Center
Thu 11:39:55 PM 30.5828 -90.2086 84° East 491 565 41,000  Level Houston Center
Thu 11:40:56 PM 30.5967 -90.0511 84° East 489 563 41,000  Level Houston Center
Thu 11:41:57 PM 30.6106 -89.8919 84° East 490 564 41,000  Level Houston Center
Thu 11:42:58 PM 30.6239 -89.7325 84° East 489 563 41,000  Level Houston Center
Thu 11:43:59 PM 30.6358 -89.5736 85° East 489 563 41,000  Level Houston Center
Thu 11:45:00 PM 30.6483 -89.4158 85° East 489 563 41,000  Level Houston Center
Thu 11:46:01 PM 30.6606 -89.2586 85° East 487 560 41,000  Level Houston Center
Thu 11:47:02 PM 30.6731 -89.0692 86° East 489 563 41,000  Level Houston Center
Thu 11:48:03 PM 30.6817 -88.9378 86° East 487 560 41,000  Level Houston Center
Thu 11:49:04 PM 30.6958 -88.7503 85° East 488 562 41,000  Level Houston Center
Thu 11:50:05 PM 30.7072 -88.5950 85° East 487 560 41,000  Level Houston Center
Thu 11:51:06 PM 30.7181 -88.4419 85° East 488 562 41,000  Level Houston Center
Thu 11:52:07 PM 30.7283 -88.2856 86° East 486 559 41,000  Level Houston Center
Thu 11:53:08 PM 30.7392 -88.1289 85° East 487 560 41,000  Level Houston Center
Thu 11:54:09 PM 30.7497 -87.9731 85° East 486 559 41,000  Level Houston Center
Thu 11:54:55 PM 30.7544 -87.8525 87° East 491 565 41,000  Level Jacksonville Center
Thu 11:55:55 PM 30.7667 -87.6983 85° East 486 559 41,000  Level Jacksonville Center
Thu 11:56:55 PM 30.7744 -87.5442 87° East 476 548 41,000  Level Jacksonville Center
Thu 11:57:55 PM 30.7294 -87.4042 110° East 463 533 41,000  Level Jacksonville Center
Thu 11:58:55 PM 30.6436 -87.2939 132° Southeast 441 507 41,000  Level Jacksonville Center
Thu 11:59:55 PM 30.5597 -87.1792 130° Southeast 453 521 41,000  Level Jacksonville Center
Fri 12:00:55 AM 30.4736 -87.0692 132° Southeast 453 521 41,000  Level Jacksonville Center
Fri 12:01:55 AM 30.3836 -86.9522 132° Southeast 450 518 41,000  Level Jacksonville Center
Fri 12:02:55 AM 30.2953 -86.8378 132° Southeast 450 518 41,000  Level Jacksonville Center
Fri 12:03:55 AM 30.2108 -86.7286 132° Southeast 456 525 41,000  Level Jacksonville Center
Fri 12:04:55 AM 30.1244 -86.6169 132° Southeast 456 525 41,000  Level Jacksonville Center
Fri 12:05:55 AM 30.0400 -86.5083 132° Southeast 461 531 41,000  Level Jacksonville Center
Fri 12:06:55 AM 29.9553 -86.3997 132° Southeast 461 531 41,000  Level Jacksonville Center
Fri 12:07:55 AM 29.8706 -86.2889 131° Southeast 461 531 41,000  Level Jacksonville Center
Fri 12:08:55 AM 29.7836 -86.1781 132° Southeast 461 531 41,000  Level Jacksonville Center
Fri 12:09:55 AM 29.6967 -86.0700 133° Southeast 461 531 41,000  Level Jacksonville Center
Fri 12:10:55 AM 29.6097 -85.9597 132° Southeast 461 531 41,000  Level Jacksonville Center
Fri 12:11:55 AM 29.5244 -85.8494 132° Southeast 461 531 41,000  Level Jacksonville Center
Fri 12:12:55 AM 29.4372 -85.7397 132° Southeast 461 531 41,000  Level Jacksonville Center
Fri 12:13:55 AM 29.3500 -85.6300 132° Southeast 461 531 41,000  Level Jacksonville Center
Fri 12:14:55 AM 29.2606 -85.5181 132° Southeast 461 531 41,000  Level Jacksonville Center
Fri 12:15:55 AM 29.1731 -85.4064 132° Southeast 461 531 41,000  Level Jacksonville Center
Fri 12:16:55 AM 29.0853 -85.2994 133° Southeast 461 531 41,000  Level Jacksonville Center
Fri 12:17:55 AM 29.0078 -85.1956 130° Southeast 466 536 41,000  Level Jacksonville Center
Fri 12:19:40 AM 28.8447 -84.9994 133° Southeast 475 547 41,000  Level Miami Center
Fri 12:20:42 AM 28.7594 -84.8892 131° Southeast 475 547 41,000  Level Miami Center
Fri 12:21:39 AM 28.6697 -84.7786 133° Southeast 475 547 41,000  Level Miami Center
Fri 12:22:39 AM 28.5797 -84.6708 134° Southeast 475 547 41,000  Level Miami Center
Fri 12:23:39 AM 28.4919 -84.5608 132° Southeast 475 547 41,000  Level Miami Center
Fri 12:24:39 AM 28.3981 -84.4483 133° Southeast 475 547 41,000  Level Miami Center
Fri 12:25:42 AM 28.3100 -84.3386 132° Southeast 475 547 41,000  Level Miami Center
Fri 12:26:40 AM 28.2219 -84.2292 132° Southeast 475 547 41,000  Level Miami Center
Fri 12:27:39 AM 28.1444 -84.1114 127° Southeast 469 540 41,000  Level Miami Center
Fri 12:28:39 AM 28.0606 -83.9956 129° Southeast 469 540 41,000  Level Miami Center
Fri 12:29:41 AM 27.9808 -83.8778 127° Southeast 475 547 41,000  Level Miami Center
Fri 12:30:39 AM 27.9011 -83.7603 127° Southeast 475 547 41,000  Level Miami Center
Fri 12:31:39 AM 27.8172 -83.6425 129° Southeast 475 547 41,000  Level Miami Center
Fri 12:32:39 AM 27.7328 -83.5272 130° Southeast 475 547 41,000  Level Miami Center
Fri 12:33:39 AM 27.6528 -83.4081 127° Southeast 475 547 41,000  Level Miami Center
Fri 12:34:39 AM 27.5783 -83.3006 128° Southeast 475 547 41,000  Level Miami Center
Fri 12:35:42 AM 27.4939 -83.1858 130° Southeast 475 547 41,000  Level Miami Center
Fri 12:36:42 AM 27.4133 -83.0694 128° Southeast 475 547 41,000  Level Miami Center
Fri 12:37:39 AM 27.3325 -82.9575 129° Southeast 475 547 41,000  Level Miami Center
Fri 12:38:41 AM 27.2561 -82.8392 126° Southeast 469 540 41,000 -100 Level Miami Center
Fri 12:39:39 AM 27.1711 -82.7275 131° Southeast 464 534 40,800 -814 Descending Miami Center
Fri 12:40:39 AM 27.0878 -82.6136 129° Southeast 464 534 39,400 -1,537 Descending Miami Center
Fri 12:41:40 AM 27.0111 -82.5003 127° Southeast 464 534 37,700 -1,900 Descending Miami Center
Fri 12:42:39 AM 26.9278 -82.3844 129° Southeast 464 534 35,600 -1,983 Descending Miami Center
Fri 12:43:41 AM 26.8464 -82.2761 130° Southeast 464 534 33,700 -1,950 Descending Miami Center
Fri 12:44:39 AM 26.7650 -82.1606 128° Southeast 464 534 31,700 -2,034 Descending Miami Center
Fri 12:45:39 AM 26.6814 -82.0500 130° Southeast 464 534 29,700 -2,083 Descending Miami Center
Fri 12:46:40 AM 26.6000 -81.9325 128° Southeast 469 540 27,500 -2,281 Descending Miami Center
Fri 12:47:40 AM 26.5183 -81.8178 128° Southeast 469 540 25,100 -2,471 Descending Miami Center
Fri 12:48:39 AM 26.4425 -81.7147 129° Southeast 450 518 22,600 -2,319 Descending Miami Center
Fri 12:49:39 AM 26.3686 -81.6097 128° Southeast 440 506 20,500 -1,900 Descending Miami Center
Fri 12:50:39 AM 26.2967 -81.5119 129° Southeast 422 486 18,800 -1,689 Descending Miami Center
Fri 12:51:22 AM 26.2361 -81.4400 133° Southeast 403 464 17,600 -1,475 Descending Miami Center
Fri 12:51:40 AM 26.2244 -81.4189 122° Southeast 409 471 17,300 -1,385 Descending Miami Center
Fri 12:52:40 AM 26.1583 -81.3261 128° Southeast 398 458 15,800 -1,500 Descending Miami Center
Fri 12:53:40 AM 26.0942 -81.2403 130° Southeast 379 436 14,300 -1,563 Descending Miami Center
Fri 12:54:39 AM 26.0278 -81.1525 130° Southeast 366 421 12,700 -1,550 Descending Miami Center
Fri 12:55:40 AM 25.9739 -81.0650 124° Southeast 360 414 11,200 -1,350 Descending Miami Center
Fri 12:56:39 AM 25.9433 -80.9647 109° East 338 389 10,000 -884 Descending Miami Center
Fri 12:57:49 AM 25.9067 -80.8525 110° East 289 333 9,300 -793 Descending Miami Center
Fri 12:58:40 AM 25.8897 -80.7897 107° East 310 357 8,400 -1,302 Descending Miami Center
Fri 12:59:58 AM 25.8528 -80.6800 110° East 269 310 6,500 -1,300 Descending Miami Center
Fri 01:00:40 AM 25.8436 -80.6311 102° East 271 312 5,800 -1,322 Descending Miami Center
Fri 01:00:57 AM 25.8297 -80.6053 121° Southeast 225 259 5,200 -1,462 Descending Miami Center
Fri 01:01:58 AM 25.8125 -80.5450 108° East 200 230 3,900 -1,091 Descending Miami Center
Fri 01:02:58 AM 25.7972 -80.4892 107° East 199 229 3,000 -694 Descending Miami Center
Fri 01:03:59 AM 25.7942 -80.4450 94° East 137 158 2,500 -595 Descending Miami Center
Fri 01:04:59 AM 25.7931 -80.4058 20° North 119 137 1,800 -694 Descending Miami Center
Fri 01:05:00 AM 25.7952 -80.3149 20° North  Level Estimated
Fri 01:06:00 AM 25.7939 -80.3714 88° East 118 136 1,100  Level Miami Center
Fri 01:07:03 AM 25.7967 -80.3322 85° East 119 137 500 -571 Descending Miami Center
Fri 01:09:00 AM 25.7954 -80.2901 20° North  Level Estimated
Fri 01:16:00 AM 25.7954 -80.2901 20° North  Level Estimated
Fri 01:17:00 AM 25.7954 -80.2901 20° North  Level Estimated
Fri 01:18:00 AM 25.7954 -80.2901 20° North  Level Estimated
Fri 01:19:00 AM 25.7954 -80.2901 20° North  Level Estimated
Fri 01:20:00 AM 25.7954 -80.2901 20° North  Level Estimated
Fri 01:21:00 AM 25.7954 -80.2901 20° North  Level Estimated
Fri 01:22:00 AM 25.7954 -80.2901 20° North  Level Estimated
Fri 01:23:00 AM 25.7954 -80.2901 20° North  Level Estimated
Fri 01:24:00 AM 25.7954 -80.2901 20° North  Level Estimated
Fri 01:25:00 AM 25.7954 -80.2901 20° North  Level Estimated
Fri 01:26:00 AM 25.7954 -80.2901 20° North  Level Estimated
Fri 01:27:00 AM 25.7954 -80.2901 20° North  Level Estimated

Login

Don't have an account? Register now (free) for customized features, flight alerts, and more!